Montauk, NY

4:32 AM EDT on September 02, 2015 (GMT -0400)
Montauk | | Change Station
CLOSE
Current Station
Airport
Location: Montauk,
Elevation: 7 ft
Nearby Weather Stations

Elev 7 ft 41.07 °N, 71.92 °W | Updated 38 minutes ago

Partly Cloudy
Partly Cloudy
71 °F
Feels Like 71 °F
N
0
Wind Variable Wind from North
Gusts mph

Today
High -- | Low -- °F
--% Chance of Precip.
Yesterday
High -- | Low -- °F
Precip. -- in
6:15 AM 7:19 PM
Waning Gibbous, 82% visible
Pressure 30.05 in
Visibility -9999.0 miles
Clouds
Dew Point 68 °F
Humidity 90%
Rainfall 0.00 in
Snow Depth Not available.
UV Not available.
Pollen 9.00 out of 12
Air Quality Not available.
Flu Activity Not available.
METAR KMTP 020754Z AUTO 00000KT 22/20 A3005 RMK AO1 SLP174 T02170200
Pressure 30.05 in
Visibility -9999.0 miles
Clouds
Dew Point 68 °F
Humidity 90%
Rainfall 0.00 in
Snow Depth Not available.
UV Not available.
Pollen 9.00 out of 12
Air Quality Not available.
Flu Activity Not available.
METAR KMTP 020754Z AUTO 00000KT 22/20 A3005 RMK AO1 SLP174 T02170200
Nowcast | as of 1:38 am EDT on September 2, 2015

Patchy dense fog until sunrise Clear skies and calm winds will cause areas of fog until sunrise. A few patches of dense fog may briefly restrict visibility to 1/4 mile or less. Motorists should exercise caution while driving through early morning fog.

×

10-Day Weather Forecast

×

Almanac

Astronomy

Sep. 02, 2015 Rise Set
Actual Time
Civil Twilight
Nautical Twilight
Astronomical Twilight
Moon
Length of Visible Light
Length of Day
Tomorrow will be .
, % of the Moon is Illuminated

Today's Extremes

State Highs State Lows

Community

WunderPhotos

Upload Photos

1,851,728 photos uploaded!

WunderBlogs® & News

Nearby

Air Quality

  Air Quality AQ Index Pollutant
Not available.

Snow Depth

Station Depth Elevation

Earthquake Activity

City Distance Mag. Time & Date
Minimum magnitude displayed is 2.5.

Coastal Water Temperatures

Place Temperature

Stations

Nearby Weather Stations

Station Location Temp. Windchill Dew Point Humidity Wind Precip. Elev Updated Type